sensor_id;sensor_type;location;lat;lon;timestamp;temperature;humidity
6843;DHT22;3460;52.028;8.916;2024-02-26T00:01:27;1.70;99.90
6843;DHT22;3460;52.028;8.916;2024-02-26T00:03:55;1.70;99.90
6843;DHT22;3460;52.028;8.916;2024-02-26T00:06:25;1.70;99.90
6843;DHT22;3460;52.028;8.916;2024-02-26T00:08:51;1.70;99.90
6843;DHT22;3460;52.028;8.916;2024-02-26T00:11:18;1.70;99.90
6843;DHT22;3460;52.028;8.916;2024-02-26T00:13:45;1.70;99.90
6843;DHT22;3460;52.028;8.916;2024-02-26T00:16:12;1.70;99.90
6843;DHT22;3460;52.028;8.916;2024-02-26T00:18:38;1.70;99.90
6843;DHT22;3460;52.028;8.916;2024-02-26T00:21:07;1.70;99.90
6843;DHT22;3460;52.028;8.916;2024-02-26T00:23:33;1.80;99.90
6843;DHT22;3460;52.028;8.916;2024-02-26T00:26:00;1.80;99.90
6843;DHT22;3460;52.028;8.916;2024-02-26T00:28:27;2.00;99.90
6843;DHT22;3460;52.028;8.916;2024-02-26T00:30:54;2.10;99.90
6843;DHT22;3460;52.028;8.916;2024-02-26T00:33:22;2.20;99.90
6843;DHT22;3460;52.028;8.916;2024-02-26T00:35:49;2.20;99.90
6843;DHT22;3460;52.028;8.916;2024-02-26T00:38:17;2.20;99.90
6843;DHT22;3460;52.028;8.916;2024-02-26T00:40:44;2.20;99.90
6843;DHT22;3460;52.028;8.916;2024-02-26T00:43:10;2.30;99.90
6843;DHT22;3460;52.028;8.916;2024-02-26T00:45:37;2.40;99.90
6843;DHT22;3460;52.028;8.916;2024-02-26T00:48:05;2.30;99.90
6843;DHT22;3460;52.028;8.916;2024-02-26T00:50:32;2.30;99.90
6843;DHT22;3460;52.028;8.916;2024-02-26T00:52:59;2.20;99.90
6843;DHT22;3460;52.028;8.916;2024-02-26T00:55:27;2.20;99.90
6843;DHT22;3460;52.028;8.916;2024-02-26T00:57:54;2.20;99.90
6843;DHT22;3460;52.028;8.916;2024-02-26T01:00:21;2.20;99.90
6843;DHT22;3460;52.028;8.916;2024-02-26T01:02:48;2.20;99.90
6843;DHT22;3460;52.028;8.916;2024-02-26T01:05:15;2.30;99.90
6843;DHT22;3460;52.028;8.916;2024-02-26T01:07:42;2.30;99.90
6843;DHT22;3460;52.028;8.916;2024-02-26T01:10:09;2.40;99.90
6843;DHT22;3460;52.028;8.916;2024-02-26T01:12:38;2.40;99.90
6843;DHT22;3460;52.028;8.916;2024-02-26T01:15:05;2.40;99.90
6843;DHT22;3460;52.028;8.916;2024-02-26T01:17:33;2.40;99.90
6843;DHT22;3460;52.028;8.916;2024-02-26T01:20:00;2.30;99.90
6843;DHT22;3460;52.028;8.916;2024-02-26T01:22:27;2.30;99.90
6843;DHT22;3460;52.028;8.916;2024-02-26T01:24:54;2.30;99.90
6843;DHT22;3460;52.028;8.916;2024-02-26T01:27:22;2.30;99.90
6843;DHT22;3460;52.028;8.916;2024-02-26T01:29:53;2.20;99.90
6843;DHT22;3460;52.028;8.916;2024-02-26T01:32:20;2.40;99.90
6843;DHT22;3460;52.028;8.916;2024-02-26T01:34:47;2.50;99.90
6843;DHT22;3460;52.028;8.916;2024-02-26T01:37:14;2.50;99.90
6843;DHT22;3460;52.028;8.916;2024-02-26T01:39:39;2.50;99.90
6843;DHT22;3460;52.028;8.916;2024-02-26T01:42:07;2.70;99.90
6843;DHT22;3460;52.028;8.916;2024-02-26T01:44:33;2.70;76.20
6843;DHT22;3460;52.028;8.916;2024-02-26T01:47:02;2.90;66.10
6843;DHT22;3460;52.028;8.916;2024-02-26T01:49:29;2.90;32.10
6843;DHT22;3460;52.028;8.916;2024-02-26T01:51:57;3.00;1.00
6843;DHT22;3460;52.028;8.916;2024-02-26T01:54:25;3.00;23.20
6843;DHT22;3460;52.028;8.916;2024-02-26T01:56:52;3.00;1.00
6843;DHT22;3460;52.028;8.916;2024-02-26T01:59:19;3.10;1.00
6843;DHT22;3460;52.028;8.916;2024-02-26T02:01:51;3.00;1.00
6843;DHT22;3460;52.028;8.916;2024-02-26T02:04:21;3.00;1.00
6843;DHT22;3460;52.028;8.916;2024-02-26T02:06:48;3.00;1.00
6843;DHT22;3460;52.028;8.916;2024-02-26T02:09:15;3.00;26.00
6843;DHT22;3460;52.028;8.916;2024-02-26T02:11:42;3.00;26.60
6843;DHT22;3460;52.028;8.916;2024-02-26T02:14:09;3.00;63.30
6843;DHT22;3460;52.028;8.916;2024-02-26T02:16:36;3.00;67.20
6843;DHT22;3460;52.028;8.916;2024-02-26T02:19:03;3.00;66.70
6843;DHT22;3460;52.028;8.916;2024-02-26T02:21:31;3.10;16.00
6843;DHT22;3460;52.028;8.916;2024-02-26T02:23:58;3.20;1.00
6843;DHT22;3460;52.028;8.916;2024-02-26T02:26:25;3.30;1.00
6843;DHT22;3460;52.028;8.916;2024-02-26T02:28:52;3.30;1.00
6843;DHT22;3460;52.028;8.916;2024-02-26T02:31:19;3.30;1.00
6843;DHT22;3460;52.028;8.916;2024-02-26T02:33:46;3.30;1.00
6843;DHT22;3460;52.028;8.916;2024-02-26T02:36:13;3.50;1.00
6843;DHT22;3460;52.028;8.916;2024-02-26T02:38:48;3.50;1.00
6843;DHT22;3460;52.028;8.916;2024-02-26T02:41:16;3.50;1.00
6843;DHT22;3460;52.028;8.916;2024-02-26T02:43:43;3.50;1.00
6843;DHT22;3460;52.028;8.916;2024-02-26T02:46:10;3.40;1.00
6843;DHT22;3460;52.028;8.916;2024-02-26T02:48:37;3.60;1.00
6843;DHT22;3460;52.028;8.916;2024-02-26T02:51:04;3.70;99.90
6843;DHT22;3460;52.028;8.916;2024-02-26T02:53:31;3.80;95.60
6843;DHT22;3460;52.028;8.916;2024-02-26T02:55:59;3.90;1.00
6843;DHT22;3460;52.028;8.916;2024-02-26T02:58:26;3.90;1.00
6843;DHT22;3460;52.028;8.916;2024-02-26T03:00:53;3.90;1.00
6843;DHT22;3460;52.028;8.916;2024-02-26T03:03:20;3.80;99.90
6843;DHT22;3460;52.028;8.916;2024-02-26T03:05:49;3.80;99.90
6843;DHT22;3460;52.028;8.916;2024-02-26T03:08:16;3.80;92.40
6843;DHT22;3460;52.028;8.916;2024-02-26T03:10:44;4.00;1.00
6843;DHT22;3460;52.028;8.916;2024-02-26T03:13:12;4.00;1.00
6843;DHT22;3460;52.028;8.916;2024-02-26T03:15:39;4.00;94.00
6843;DHT22;3460;52.028;8.916;2024-02-26T03:18:06;4.00;99.90
6843;DHT22;3460;52.028;8.916;2024-02-26T03:20:33;4.00;99.90
6843;DHT22;3460;52.028;8.916;2024-02-26T03:23:00;4.00;99.90
6843;DHT22;3460;52.028;8.916;2024-02-26T03:25:27;4.00;99.90
6843;DHT22;3460;52.028;8.916;2024-02-26T03:27:53;4.10;4.20
6843;DHT22;3460;52.028;8.916;2024-02-26T03:30:21;4.10;1.00
6843;DHT22;3460;52.028;8.916;2024-02-26T03:32:48;4.20;1.00
6843;DHT22;3460;52.028;8.916;2024-02-26T03:35:15;4.20;1.00
6843;DHT22;3460;52.028;8.916;2024-02-26T03:37:42;4.30;1.00
6843;DHT22;3460;52.028;8.916;2024-02-26T03:40:09;4.30;1.00
6843;DHT22;3460;52.028;8.916;2024-02-26T03:42:38;4.30;99.90
6843;DHT22;3460;52.028;8.916;2024-02-26T03:45:06;4.40;1.00
6843;DHT22;3460;52.028;8.916;2024-02-26T03:47:34;4.40;1.00
6843;DHT22;3460;52.028;8.916;2024-02-26T03:50:01;4.40;1.00
6843;DHT22;3460;52.028;8.916;2024-02-26T03:52:29;4.40;1.00
6843;DHT22;3460;52.028;8.916;2024-02-26T03:54:56;4.40;99.90
6843;DHT22;3460;52.028;8.916;2024-02-26T03:57:23;4.40;1.00
6843;DHT22;3460;52.028;8.916;2024-02-26T03:59:49;4.40;10.00
6843;DHT22;3460;52.028;8.916;2024-02-26T04:02:16;4.40;1.00
6843;DHT22;3460;52.028;8.916;2024-02-26T04:04:46;4.40;1.00
6843;DHT22;3460;52.028;8.916;2024-02-26T04:07:13;4.40;1.00
6843;DHT22;3460;52.028;8.916;2024-02-26T04:09:39;4.50;1.00
6843;DHT22;3460;52.028;8.916;2024-02-26T04:12:07;4.60;99.90
6843;DHT22;3460;52.028;8.916;2024-02-26T04:14:33;4.60;1.00
6843;DHT22;3460;52.028;8.916;2024-02-26T04:17:02;4.50;4.50
6843;DHT22;3460;52.028;8.916;2024-02-26T04:19:28;4.50;99.90
6843;DHT22;3460;52.028;8.916;2024-02-26T04:21:57;4.50;13.00
6843;DHT22;3460;52.028;8.916;2024-02-26T04:24:23;4.60;99.90
6843;DHT22;3460;52.028;8.916;2024-02-26T04:26:50;4.70;12.50
6843;DHT22;3460;52.028;8.916;2024-02-26T04:29:17;4.70;1.00
6843;DHT22;3460;52.028;8.916;2024-02-26T04:31:44;4.50;1.00
6843;DHT22;3460;52.028;8.916;2024-02-26T04:34:11;4.50;99.90
6843;DHT22;3460;52.028;8.916;2024-02-26T04:36:38;4.40;1.00
6843;DHT22;3460;52.028;8.916;2024-02-26T04:39:06;4.60;99.90
6843;DHT22;3460;52.028;8.916;2024-02-26T04:41:33;4.50;1.00
6843;DHT22;3460;52.028;8.916;2024-02-26T04:44:00;4.50;1.00
6843;DHT22;3460;52.028;8.916;2024-02-26T04:46:27;4.70;71.30
6843;DHT22;3460;52.028;8.916;2024-02-26T04:48:54;4.70;1.00
6843;DHT22;3460;52.028;8.916;2024-02-26T04:51:21;4.60;1.00
6843;DHT22;3460;52.028;8.916;2024-02-26T04:53:48;4.60;1.00
6843;DHT22;3460;52.028;8.916;2024-02-26T04:56:16;4.70;1.00
6843;DHT22;3460;52.028;8.916;2024-02-26T04:58:42;4.70;1.00
6843;DHT22;3460;52.028;8.916;2024-02-26T05:01:09;4.80;99.90
6843;DHT22;3460;52.028;8.916;2024-02-26T05:03:36;4.90;1.00
6843;DHT22;3460;52.028;8.916;2024-02-26T05:06:04;4.80;99.90
6843;DHT22;3460;52.028;8.916;2024-02-26T05:08:31;4.80;99.90
6843;DHT22;3460;52.028;8.916;2024-02-26T05:10:59;4.70;99.90
6843;DHT22;3460;52.028;8.916;2024-02-26T05:13:27;4.80;99.90
6843;DHT22;3460;52.028;8.916;2024-02-26T05:15:54;4.80;99.90
6843;DHT22;3460;52.028;8.916;2024-02-26T05:18:22;4.80;1.00
6843;DHT22;3460;52.028;8.916;2024-02-26T05:20:48;4.80;1.00
6843;DHT22;3460;52.028;8.916;2024-02-26T05:23:15;4.80;99.90
6843;DHT22;3460;52.028;8.916;2024-02-26T05:25:42;4.90;1.00
6843;DHT22;3460;52.028;8.916;2024-02-26T05:28:11;5.10;99.90
6843;DHT22;3460;52.028;8.916;2024-02-26T05:30:39;5.20;1.00
6843;DHT22;3460;52.028;8.916;2024-02-26T05:33:06;5.20;91.40
6843;DHT22;3460;52.028;8.916;2024-02-26T05:35:33;5.10;48.60
6843;DHT22;3460;52.028;8.916;2024-02-26T05:37:59;5.10;56.40
6843;DHT22;3460;52.028;8.916;2024-02-26T05:40:26;5.10;1.00
6843;DHT22;3460;52.028;8.916;2024-02-26T05:42:53;5.10;46.10
6843;DHT22;3460;52.028;8.916;2024-02-26T05:45:20;5.10;1.00
6843;DHT22;3460;52.028;8.916;2024-02-26T05:47:49;5.10;45.00
6843;DHT22;3460;52.028;8.916;2024-02-26T05:50:16;5.20;1.00
6843;DHT22;3460;52.028;8.916;2024-02-26T05:52:42;5.20;1.00
6843;DHT22;3460;52.028;8.916;2024-02-26T05:55:09;5.20;1.00
6843;DHT22;3460;52.028;8.916;2024-02-26T05:57:36;5.10;7.80
6843;DHT22;3460;52.028;8.916;2024-02-26T06:00:04;5.00;99.90
6843;DHT22;3460;52.028;8.916;2024-02-26T06:02:31;5.00;99.90
6843;DHT22;3460;52.028;8.916;2024-02-26T06:04:59;4.90;1.00
6843;DHT22;3460;52.028;8.916;2024-02-26T06:07:26;4.90;1.00
6843;DHT22;3460;52.028;8.916;2024-02-26T06:09:53;4.90;48.70
6843;DHT22;3460;52.028;8.916;2024-02-26T06:12:20;4.90;99.90
6843;DHT22;3460;52.028;8.916;2024-02-26T06:14:47;4.90;99.90
6843;DHT22;3460;52.028;8.916;2024-02-26T06:17:13;5.00;99.90
6843;DHT22;3460;52.028;8.916;2024-02-26T06:19:40;5.10;99.90
6843;DHT22;3460;52.028;8.916;2024-02-26T06:22:08;5.10;99.90
6843;DHT22;3460;52.028;8.916;2024-02-26T06:24:35;5.10;1.00
6843;DHT22;3460;52.028;8.916;2024-02-26T06:27:02;5.00;99.90
6843;DHT22;3460;52.028;8.916;2024-02-26T06:29:29;5.00;99.90
6843;DHT22;3460;52.028;8.916;2024-02-26T06:31:56;5.00;99.90
6843;DHT22;3460;52.028;8.916;2024-02-26T06:34:23;5.00;99.90
6843;DHT22;3460;52.028;8.916;2024-02-26T06:36:50;5.10;99.90
6843;DHT22;3460;52.028;8.916;2024-02-26T06:39:18;5.00;99.90
6843;DHT22;3460;52.028;8.916;2024-02-26T06:41:45;5.00;1.00
6843;DHT22;3460;52.028;8.916;2024-02-26T06:44:12;5.00;1.00
6843;DHT22;3460;52.028;8.916;2024-02-26T06:46:39;5.00;1.00
6843;DHT22;3460;52.028;8.916;2024-02-26T06:49:06;5.00;99.90
6843;DHT22;3460;52.028;8.916;2024-02-26T06:51:33;5.00;99.90
6843;DHT22;3460;52.028;8.916;2024-02-26T06:53:59;5.00;99.90
6843;DHT22;3460;52.028;8.916;2024-02-26T06:56:28;5.00;94.90
6843;DHT22;3460;52.028;8.916;2024-02-26T06:58:54;5.10;1.00
6843;DHT22;3460;52.028;8.916;2024-02-26T07:01:21;5.20;99.90
6843;DHT22;3460;52.028;8.916;2024-02-26T07:03:48;5.30;99.90
6843;DHT22;3460;52.028;8.916;2024-02-26T07:06:15;5.30;1.00
6843;DHT22;3460;52.028;8.916;2024-02-26T07:08:41;5.40;1.00
6843;DHT22;3460;52.028;8.916;2024-02-26T07:11:10;5.40;1.00
6843;DHT22;3460;52.028;8.916;2024-02-26T07:13:39;5.80;1.00
6843;DHT22;3460;52.028;8.916;2024-02-26T07:16:08;6.00;99.90
6843;DHT22;3460;52.028;8.916;2024-02-26T07:18:35;6.00;99.90
6843;DHT22;3460;52.028;8.916;2024-02-26T07:21:02;6.00;99.90
6843;DHT22;3460;52.028;8.916;2024-02-26T07:23:29;6.10;99.90
6843;DHT22;3460;52.028;8.916;2024-02-26T07:25:56;6.20;74.30
6843;DHT22;3460;52.028;8.916;2024-02-26T07:28:23;6.20;75.00
6843;DHT22;3460;52.028;8.916;2024-02-26T07:30:51;6.20;99.90
6843;DHT22;3460;52.028;8.916;2024-02-26T07:33:18;6.20;99.90
6843;DHT22;3460;52.028;8.916;2024-02-26T07:35:45;6.20;99.90
6843;DHT22;3460;52.028;8.916;2024-02-26T07:38:12;6.20;99.90
6843;DHT22;3460;52.028;8.916;2024-02-26T07:40:39;6.20;99.90
6843;DHT22;3460;52.028;8.916;2024-02-26T07:43:06;6.20;99.90
6843;DHT22;3460;52.028;8.916;2024-02-26T07:45:33;6.20;99.90
6843;DHT22;3460;52.028;8.916;2024-02-26T07:48:03;6.20;1.00
6843;DHT22;3460;52.028;8.916;2024-02-26T07:50:30;6.20;99.90
6843;DHT22;3460;52.028;8.916;2024-02-26T07:52:57;6.20;99.90
6843;DHT22;3460;52.028;8.916;2024-02-26T07:55:24;6.20;1.00
6843;DHT22;3460;52.028;8.916;2024-02-26T07:57:50;6.20;1.00
6843;DHT22;3460;52.028;8.916;2024-02-26T08:00:18;6.20;99.90
6843;DHT22;3460;52.028;8.916;2024-02-26T08:02:45;6.30;99.90
6843;DHT22;3460;52.028;8.916;2024-02-26T08:05:14;6.30;99.90
6843;DHT22;3460;52.028;8.916;2024-02-26T08:07:41;6.40;99.90
6843;DHT22;3460;52.028;8.916;2024-02-26T08:10:08;6.40;99.90
6843;DHT22;3460;52.028;8.916;2024-02-26T08:12:35;6.50;99.90
6843;DHT22;3460;52.028;8.916;2024-02-26T08:15:02;6.50;99.90
6843;DHT22;3460;52.028;8.916;2024-02-26T08:17:30;6.50;99.90
6843;DHT22;3460;52.028;8.916;2024-02-26T08:19:58;6.60;99.90
6843;DHT22;3460;52.028;8.916;2024-02-26T08:22:26;6.60;99.90
6843;DHT22;3460;52.028;8.916;2024-02-26T08:24:53;6.60;99.90
6843;DHT22;3460;52.028;8.916;2024-02-26T08:27:20;6.70;81.10
6843;DHT22;3460;52.028;8.916;2024-02-26T08:29:47;6.70;96.30
6843;DHT22;3460;52.028;8.916;2024-02-26T08:32:13;6.70;97.20
6843;DHT22;3460;52.028;8.916;2024-02-26T08:34:40;6.70;99.40
6843;DHT22;3460;52.028;8.916;2024-02-26T08:37:07;6.70;74.00
6843;DHT22;3460;52.028;8.916;2024-02-26T08:39:35;6.80;94.60
6843;DHT22;3460;52.028;8.916;2024-02-26T08:42:02;6.80;99.90
6843;DHT22;3460;52.028;8.916;2024-02-26T08:44:28;6.80;1.30
6843;DHT22;3460;52.028;8.916;2024-02-26T08:46:55;6.80;1.00
6843;DHT22;3460;52.028;8.916;2024-02-26T08:49:22;6.80;1.00
6843;DHT22;3460;52.028;8.916;2024-02-26T08:51:49;6.90;1.00
6843;DHT22;3460;52.028;8.916;2024-02-26T08:54:16;6.90;1.00
6843;DHT22;3460;52.028;8.916;2024-02-26T08:56:44;6.90;5.90
6843;DHT22;3460;52.028;8.916;2024-02-26T08:59:10;7.00;1.00
6843;DHT22;3460;52.028;8.916;2024-02-26T09:01:37;6.90;1.00
6843;DHT22;3460;52.028;8.916;2024-02-26T09:04:04;7.00;1.00
6843;DHT22;3460;52.028;8.916;2024-02-26T09:06:31;7.00;1.00
6843;DHT22;3460;52.028;8.916;2024-02-26T09:08:58;7.00;1.00
6843;DHT22;3460;52.028;8.916;2024-02-26T09:11:24;7.00;1.00
6843;DHT22;3460;52.028;8.916;2024-02-26T09:13:52;7.10;1.00
6843;DHT22;3460;52.028;8.916;2024-02-26T09:16:19;7.20;1.00
6843;DHT22;3460;52.028;8.916;2024-02-26T09:18:46;7.20;1.00
6843;DHT22;3460;52.028;8.916;2024-02-26T09:21:13;7.20;1.00
6843;DHT22;3460;52.028;8.916;2024-02-26T09:23:40;7.20;1.00
6843;DHT22;3460;52.028;8.916;2024-02-26T09:26:07;7.30;99.90
6843;DHT22;3460;52.028;8.916;2024-02-26T09:28:34;7.30;99.90
6843;DHT22;3460;52.028;8.916;2024-02-26T09:31:04;7.30;99.90
6843;DHT22;3460;52.028;8.916;2024-02-26T09:33:31;7.30;99.90
6843;DHT22;3460;52.028;8.916;2024-02-26T09:35:58;7.40;99.90
6843;DHT22;3460;52.028;8.916;2024-02-26T09:38:26;7.50;99.90
6843;DHT22;3460;52.028;8.916;2024-02-26T09:40:52;7.50;99.90
6843;DHT22;3460;52.028;8.916;2024-02-26T09:43:21;7.50;99.90
6843;DHT22;3460;52.028;8.916;2024-02-26T09:45:50;7.60;99.90
6843;DHT22;3460;52.028;8.916;2024-02-26T09:48:18;7.60;99.90
6843;DHT22;3460;52.028;8.916;2024-02-26T09:50:45;7.60;99.90
6843;DHT22;3460;52.028;8.916;2024-02-26T09:53:13;7.70;99.90
6843;DHT22;3460;52.028;8.916;2024-02-26T09:55:40;7.70;99.90
6843;DHT22;3460;52.028;8.916;2024-02-26T09:58:07;7.70;99.90
6843;DHT22;3460;52.028;8.916;2024-02-26T10:00:37;7.80;99.90
6843;DHT22;3460;52.028;8.916;2024-02-26T10:03:05;7.80;99.90
6843;DHT22;3460;52.028;8.916;2024-02-26T10:05:33;7.90;99.90
6843;DHT22;3460;52.028;8.916;2024-02-26T10:08:01;7.90;99.90
6843;DHT22;3460;52.028;8.916;2024-02-26T10:10:29;7.90;99.90
6843;DHT22;3460;52.028;8.916;2024-02-26T10:12:57;7.90;99.90
6843;DHT22;3460;52.028;8.916;2024-02-26T10:15:24;7.90;99.90
6843;DHT22;3460;52.028;8.916;2024-02-26T10:17:51;7.90;99.90
6843;DHT22;3460;52.028;8.916;2024-02-26T10:20:19;7.90;1.00
6843;DHT22;3460;52.028;8.916;2024-02-26T10:22:48;7.90;1.00
6843;DHT22;3460;52.028;8.916;2024-02-26T10:25:15;7.90;1.00
6843;DHT22;3460;52.028;8.916;2024-02-26T10:27:42;8.00;1.00
6843;DHT22;3460;52.028;8.916;2024-02-26T10:30:19;8.00;1.00
6843;DHT22;3460;52.028;8.916;2024-02-26T10:32:47;8.00;1.00
6843;DHT22;3460;52.028;8.916;2024-02-26T10:35:14;8.00;1.00
6843;DHT22;3460;52.028;8.916;2024-02-26T10:37:41;8.00;1.00
6843;DHT22;3460;52.028;8.916;2024-02-26T10:40:11;7.90;1.00
6843;DHT22;3460;52.028;8.916;2024-02-26T10:42:38;8.00;14.90
6843;DHT22;3460;52.028;8.916;2024-02-26T10:45:06;8.00;1.00
6843;DHT22;3460;52.028;8.916;2024-02-26T10:47:35;8.00;1.00
6843;DHT22;3460;52.028;8.916;2024-02-26T10:50:02;8.00;12.90
6843;DHT22;3460;52.028;8.916;2024-02-26T10:52:31;8.00;1.00
6843;DHT22;3460;52.028;8.916;2024-02-26T10:55:01;8.10;99.90
6843;DHT22;3460;52.028;8.916;2024-02-26T10:57:33;8.20;48.30
6843;DHT22;3460;52.028;8.916;2024-02-26T11:00:01;8.20;1.00
6843;DHT22;3460;52.028;8.916;2024-02-26T11:02:31;8.20;1.00
6843;DHT22;3460;52.028;8.916;2024-02-26T11:04:59;8.30;99.90
6843;DHT22;3460;52.028;8.916;2024-02-26T11:07:26;8.30;1.00
6843;DHT22;3460;52.028;8.916;2024-02-26T11:09:55;8.20;1.00
6843;DHT22;3460;52.028;8.916;2024-02-26T11:12:23;8.20;99.90
6843;DHT22;3460;52.028;8.916;2024-02-26T11:14:52;8.20;99.90
6843;DHT22;3460;52.028;8.916;2024-02-26T11:17:21;8.20;99.90
6843;DHT22;3460;52.028;8.916;2024-02-26T11:19:50;8.10;99.90
6843;DHT22;3460;52.028;8.916;2024-02-26T11:22:17;8.10;99.90
6843;DHT22;3460;52.028;8.916;2024-02-26T11:24:44;8.10;99.90
6843;DHT22;3460;52.028;8.916;2024-02-26T11:27:11;8.20;99.90
6843;DHT22;3460;52.028;8.916;2024-02-26T11:29:41;8.30;99.90
6843;DHT22;3460;52.028;8.916;2024-02-26T11:32:11;8.40;99.90
6843;DHT22;3460;52.028;8.916;2024-02-26T11:34:38;8.20;1.00
6843;DHT22;3460;52.028;8.916;2024-02-26T11:37:11;8.20;1.00
6843;DHT22;3460;52.028;8.916;2024-02-26T11:39:40;8.10;16.30
6843;DHT22;3460;52.028;8.916;2024-02-26T11:42:07;8.10;20.80
6843;DHT22;3460;52.028;8.916;2024-02-26T11:44:35;8.10;1.00
6843;DHT22;3460;52.028;8.916;2024-02-26T11:47:11;8.10;1.00
6843;DHT22;3460;52.028;8.916;2024-02-26T11:49:38;8.10;1.00
6843;DHT22;3460;52.028;8.916;2024-02-26T11:52:07;8.10;1.00
6843;DHT22;3460;52.028;8.916;2024-02-26T11:54:43;8.10;1.00
6843;DHT22;3460;52.028;8.916;2024-02-26T11:57:21;8.10;1.00
6843;DHT22;3460;52.028;8.916;2024-02-26T11:59:48;8.10;1.00
6843;DHT22;3460;52.028;8.916;2024-02-26T12:02:43;8.20;1.00
6843;DHT22;3460;52.028;8.916;2024-02-26T12:05:12;8.10;1.00
6843;DHT22;3460;52.028;8.916;2024-02-26T12:07:46;8.20;99.90
6843;DHT22;3460;52.028;8.916;2024-02-26T12:10:15;8.20;99.90
6843;DHT22;3460;52.028;8.916;2024-02-26T12:12:42;8.20;99.90
6843;DHT22;3460;52.028;8.916;2024-02-26T12:15:09;8.30;99.90
6843;DHT22;3460;52.028;8.916;2024-02-26T12:17:38;8.30;99.90
6843;DHT22;3460;52.028;8.916;2024-02-26T12:20:13;8.30;99.90
6843;DHT22;3460;52.028;8.916;2024-02-26T12:22:40;8.30;99.90
6843;DHT22;3460;52.028;8.916;2024-02-26T12:25:09;8.30;99.90
6843;DHT22;3460;52.028;8.916;2024-02-26T12:27:36;8.30;99.90
6843;DHT22;3460;52.028;8.916;2024-02-26T12:30:03;8.30;99.90
6843;DHT22;3460;52.028;8.916;2024-02-26T12:32:30;8.40;91.60
6843;DHT22;3460;52.028;8.916;2024-02-26T12:34:57;8.30;1.00
6843;DHT22;3460;52.028;8.916;2024-02-26T12:37:25;8.30;53.50
6843;DHT22;3460;52.028;8.916;2024-02-26T12:39:52;8.40;29.90
6843;DHT22;3460;52.028;8.916;2024-02-26T12:42:19;8.40;7.70
6843;DHT22;3460;52.028;8.916;2024-02-26T12:44:46;8.40;1.00
6843;DHT22;3460;52.028;8.916;2024-02-26T12:47:13;8.40;1.00
6843;DHT22;3460;52.028;8.916;2024-02-26T12:49:42;8.40;1.00
6843;DHT22;3460;52.028;8.916;2024-02-26T12:52:10;8.50;1.00
6843;DHT22;3460;52.028;8.916;2024-02-26T12:54:38;8.40;1.00
6843;DHT22;3460;52.028;8.916;2024-02-26T12:57:05;8.50;1.00
6843;DHT22;3460;52.028;8.916;2024-02-26T12:59:33;8.50;1.00
6843;DHT22;3460;52.028;8.916;2024-02-26T13:02:01;8.50;1.00
6843;DHT22;3460;52.028;8.916;2024-02-26T13:04:29;8.50;1.00
6843;DHT22;3460;52.028;8.916;2024-02-26T13:06:56;8.50;1.00
6843;DHT22;3460;52.028;8.916;2024-02-26T13:09:26;8.50;1.00
6843;DHT22;3460;52.028;8.916;2024-02-26T13:11:55;8.60;1.00
6843;DHT22;3460;52.028;8.916;2024-02-26T13:14:22;8.60;1.00
6843;DHT22;3460;52.028;8.916;2024-02-26T13:16:55;8.70;1.00
6843;DHT22;3460;52.028;8.916;2024-02-26T13:19:22;8.60;1.00
6843;DHT22;3460;52.028;8.916;2024-02-26T13:21:49;8.60;1.00
6843;DHT22;3460;52.028;8.916;2024-02-26T13:24:16;8.60;1.00
6843;DHT22;3460;52.028;8.916;2024-02-26T13:26:43;8.70;1.00
6843;DHT22;3460;52.028;8.916;2024-02-26T13:29:18;8.60;1.00
6843;DHT22;3460;52.028;8.916;2024-02-26T13:31:45;8.60;1.00
6843;DHT22;3460;52.028;8.916;2024-02-26T13:34:22;8.60;1.00
6843;DHT22;3460;52.028;8.916;2024-02-26T13:36:49;8.60;1.00
6843;DHT22;3460;52.028;8.916;2024-02-26T13:39:21;8.70;33.60
6843;DHT22;3460;52.028;8.916;2024-02-26T13:41:49;8.70;1.00
6843;DHT22;3460;52.028;8.916;2024-02-26T13:44:17;8.70;1.00
6843;DHT22;3460;52.028;8.916;2024-02-26T13:46:44;8.70;1.00
6843;DHT22;3460;52.028;8.916;2024-02-26T13:49:11;8.60;1.00
6843;DHT22;3460;52.028;8.916;2024-02-26T13:51:38;8.70;1.00
6843;DHT22;3460;52.028;8.916;2024-02-26T13:54:05;8.80;24.60
6843;DHT22;3460;52.028;8.916;2024-02-26T13:56:33;8.80;1.00
6843;DHT22;3460;52.028;8.916;2024-02-26T13:58:59;8.80;1.00
6843;DHT22;3460;52.028;8.916;2024-02-26T14:01:27;8.80;27.90
6843;DHT22;3460;52.028;8.916;2024-02-26T14:03:54;8.80;99.90
6843;DHT22;3460;52.028;8.916;2024-02-26T14:06:23;8.70;99.90
6843;DHT22;3460;52.028;8.916;2024-02-26T14:08:50;8.70;99.90
6843;DHT22;3460;52.028;8.916;2024-02-26T14:11:16;8.60;99.90
6843;DHT22;3460;52.028;8.916;2024-02-26T14:13:43;8.60;99.90
6843;DHT22;3460;52.028;8.916;2024-02-26T14:16:12;8.50;99.90
6843;DHT22;3460;52.028;8.916;2024-02-26T14:18:40;8.60;99.90
6843;DHT22;3460;52.028;8.916;2024-02-26T14:21:09;8.50;99.90
6843;DHT22;3460;52.028;8.916;2024-02-26T14:23:36;8.50;99.90
6843;DHT22;3460;52.028;8.916;2024-02-26T14:26:03;8.50;99.90
6843;DHT22;3460;52.028;8.916;2024-02-26T14:28:30;8.50;99.90
6843;DHT22;3460;52.028;8.916;2024-02-26T14:30:58;8.50;99.90
6843;DHT22;3460;52.028;8.916;2024-02-26T14:33:25;8.50;1.00
6843;DHT22;3460;52.028;8.916;2024-02-26T14:35:53;8.50;1.00
6843;DHT22;3460;52.028;8.916;2024-02-26T14:38:20;8.40;1.00
6843;DHT22;3460;52.028;8.916;2024-02-26T14:40:48;8.40;1.00
6843;DHT22;3460;52.028;8.916;2024-02-26T14:43:15;8.40;1.00
6843;DHT22;3460;52.028;8.916;2024-02-26T14:45:42;8.30;1.00
6843;DHT22;3460;52.028;8.916;2024-02-26T14:48:09;8.30;1.00
6843;DHT22;3460;52.028;8.916;2024-02-26T14:50:36;8.40;71.20
6843;DHT22;3460;52.028;8.916;2024-02-26T14:53:05;8.40;1.00
6843;DHT22;3460;52.028;8.916;2024-02-26T14:55:31;8.40;1.00
6843;DHT22;3460;52.028;8.916;2024-02-26T14:57:59;8.40;33.00
6843;DHT22;3460;52.028;8.916;2024-02-26T15:00:26;8.40;1.00
6843;DHT22;3460;52.028;8.916;2024-02-26T15:02:53;8.40;1.00
6843;DHT22;3460;52.028;8.916;2024-02-26T15:05:21;8.40;1.00
6843;DHT22;3460;52.028;8.916;2024-02-26T15:07:48;8.40;65.80
6843;DHT22;3460;52.028;8.916;2024-02-26T15:10:16;8.40;1.00
6843;DHT22;3460;52.028;8.916;2024-02-26T15:12:43;8.50;1.00
6843;DHT22;3460;52.028;8.916;2024-02-26T15:15:09;8.50;1.00
6843;DHT22;3460;52.028;8.916;2024-02-26T15:17:36;8.50;1.00
6843;DHT22;3460;52.028;8.916;2024-02-26T15:20:04;8.50;42.60
6843;DHT22;3460;52.028;8.916;2024-02-26T15:22:33;8.50;1.00
6843;DHT22;3460;52.028;8.916;2024-02-26T15:24:59;8.50;1.00
6843;DHT22;3460;52.028;8.916;2024-02-26T15:27:28;8.50;1.00
6843;DHT22;3460;52.028;8.916;2024-02-26T15:29:54;8.60;1.00
6843;DHT22;3460;52.028;8.916;2024-02-26T15:32:23;8.60;1.00
6843;DHT22;3460;52.028;8.916;2024-02-26T15:34:52;8.60;1.00
6843;DHT22;3460;52.028;8.916;2024-02-26T15:37:19;8.50;1.00
6843;DHT22;3460;52.028;8.916;2024-02-26T15:39:46;8.50;1.00
6843;DHT22;3460;52.028;8.916;2024-02-26T15:42:13;8.40;1.00
6843;DHT22;3460;52.028;8.916;2024-02-26T15:44:41;8.40;1.00
6843;DHT22;3460;52.028;8.916;2024-02-26T15:47:08;8.40;1.00
6843;DHT22;3460;52.028;8.916;2024-02-26T15:49:35;8.30;1.00
6843;DHT22;3460;52.028;8.916;2024-02-26T15:52:03;8.40;99.90
6843;DHT22;3460;52.028;8.916;2024-02-26T15:54:30;8.30;99.90
6843;DHT22;3460;52.028;8.916;2024-02-26T15:56:57;8.30;99.90
6843;DHT22;3460;52.028;8.916;2024-02-26T15:59:23;8.30;99.90
6843;DHT22;3460;52.028;8.916;2024-02-26T16:01:52;8.30;99.90
6843;DHT22;3460;52.028;8.916;2024-02-26T16:04:20;8.30;99.90
6843;DHT22;3460;52.028;8.916;2024-02-26T16:06:49;8.30;99.90
6843;DHT22;3460;52.028;8.916;2024-02-26T16:09:17;8.20;99.90
6843;DHT22;3460;52.028;8.916;2024-02-26T16:11:44;8.30;99.90
6843;DHT22;3460;52.028;8.916;2024-02-26T16:14:19;8.30;99.90
6843;DHT22;3460;52.028;8.916;2024-02-26T16:16:54;8.30;99.90
6843;DHT22;3460;52.028;8.916;2024-02-26T16:19:24;8.30;99.90
6843;DHT22;3460;52.028;8.916;2024-02-26T16:21:52;8.20;99.90
6843;DHT22;3460;52.028;8.916;2024-02-26T16:24:18;8.30;99.90
6843;DHT22;3460;52.028;8.916;2024-02-26T16:26:45;8.30;99.90